sensor_id;sensor_type;location;lat;lon;timestamp;temperature;humidity
46784;DHT22;32544;52.832;13.816;2023-03-03T00:00:29;23.80;40.10
46784;DHT22;32544;52.832;13.816;2023-03-03T00:01:30;23.80;40.10
46784;DHT22;32544;52.832;13.816;2023-03-03T00:02:32;23.80;40.10
46784;DHT22;32544;52.832;13.816;2023-03-03T00:03:32;23.80;40.10
46784;DHT22;32544;52.832;13.816;2023-03-03T00:04:33;23.80;40.10
46784;DHT22;32544;52.832;13.816;2023-03-03T00:05:34;23.80;40.70
46784;DHT22;32544;52.832;13.816;2023-03-03T00:06:35;23.80;40.10
46784;DHT22;32544;52.832;13.816;2023-03-03T00:07:35;23.80;40.10
46784;DHT22;32544;52.832;13.816;2023-03-03T00:08:36;23.80;40.10
46784;DHT22;32544;52.832;13.816;2023-03-03T00:09:36;23.80;40.10
46784;DHT22;32544;52.832;13.816;2023-03-03T00:10:37;23.80;40.10
46784;DHT22;32544;52.832;13.816;2023-03-03T00:11:38;23.80;40.10
46784;DHT22;32544;52.832;13.816;2023-03-03T00:12:45;23.80;40.10
46784;DHT22;32544;52.832;13.816;2023-03-03T00:13:53;23.80;40.10
46784;DHT22;32544;52.832;13.816;2023-03-03T00:14:54;23.80;40.10
46784;DHT22;32544;52.832;13.816;2023-03-03T00:15:55;23.80;40.10
46784;DHT22;32544;52.832;13.816;2023-03-03T00:17:00;23.80;40.10
46784;DHT22;32544;52.832;13.816;2023-03-03T00:18:11;23.80;40.10
46784;DHT22;32544;52.832;13.816;2023-03-03T00:19:16;23.70;40.00
46784;DHT22;32544;52.832;13.816;2023-03-03T00:21:22;23.80;40.10
46784;DHT22;32544;52.832;13.816;2023-03-03T00:22:29;23.70;40.00
46784;DHT22;32544;52.832;13.816;2023-03-03T00:24:36;23.70;40.00
46784;DHT22;32544;52.832;13.816;2023-03-03T00:25:37;23.70;40.00
46784;DHT22;32544;52.832;13.816;2023-03-03T00:26:40;23.70;40.70
46784;DHT22;32544;52.832;13.816;2023-03-03T00:27:41;23.80;40.10
46784;DHT22;32544;52.832;13.816;2023-03-03T00:28:45;23.70;40.00
46784;DHT22;32544;52.832;13.816;2023-03-03T00:29:47;23.70;40.10
46784;DHT22;32544;52.832;13.816;2023-03-03T00:30:49;23.70;40.00
46784;DHT22;32544;52.832;13.816;2023-03-03T00:31:50;23.70;40.00
46784;DHT22;32544;52.832;13.816;2023-03-03T00:32:50;23.70;40.00
46784;DHT22;32544;52.832;13.816;2023-03-03T00:33:55;23.70;40.00
46784;DHT22;32544;52.832;13.816;2023-03-03T00:34:59;23.70;40.60
46784;DHT22;32544;52.832;13.816;2023-03-03T00:36:12;23.70;40.00
46784;DHT22;32544;52.832;13.816;2023-03-03T00:38:29;23.70;39.90
46784;DHT22;32544;52.832;13.816;2023-03-03T00:39:30;23.70;39.90
46784;DHT22;32544;52.832;13.816;2023-03-03T00:40:34;23.70;39.90
46784;DHT22;32544;52.832;13.816;2023-03-03T00:41:35;23.70;39.90
46784;DHT22;32544;52.832;13.816;2023-03-03T00:42:37;23.80;39.90
46784;DHT22;32544;52.832;13.816;2023-03-03T00:43:38;23.80;39.90
46784;DHT22;32544;52.832;13.816;2023-03-03T00:46:42;23.80;39.90
46784;DHT22;32544;52.832;13.816;2023-03-03T00:47:43;23.80;39.90
46784;DHT22;32544;52.832;13.816;2023-03-03T00:48:44;23.80;39.90
46784;DHT22;32544;52.832;13.816;2023-03-03T00:49:45;23.80;39.90
46784;DHT22;32544;52.832;13.816;2023-03-03T00:50:45;23.80;39.90
46784;DHT22;32544;52.832;13.816;2023-03-03T00:51:46;23.80;39.80
46784;DHT22;32544;52.832;13.816;2023-03-03T00:52:52;23.80;39.90
46784;DHT22;32544;52.832;13.816;2023-03-03T00:53:56;23.70;39.80
46784;DHT22;32544;52.832;13.816;2023-03-03T00:54:57;23.80;39.80
46784;DHT22;32544;52.832;13.816;2023-03-03T00:55:57;23.70;39.80
46784;DHT22;32544;52.832;13.816;2023-03-03T00:56:58;23.80;39.80
46784;DHT22;32544;52.832;13.816;2023-03-03T00:57:59;23.80;39.80
46784;DHT22;32544;52.832;13.816;2023-03-03T00:59:04;23.80;39.80
46784;DHT22;32544;52.832;13.816;2023-03-03T01:00:07;23.80;39.80
46784;DHT22;32544;52.832;13.816;2023-03-03T01:01:08;23.80;39.90
46784;DHT22;32544;52.832;13.816;2023-03-03T01:02:16;23.80;39.90
46784;DHT22;32544;52.832;13.816;2023-03-03T01:03:18;23.80;39.80
46784;DHT22;32544;52.832;13.816;2023-03-03T01:04:20;23.80;39.90
46784;DHT22;32544;52.832;13.816;2023-03-03T01:05:21;23.80;39.90
46784;DHT22;32544;52.832;13.816;2023-03-03T01:06:22;23.80;39.80
46784;DHT22;32544;52.832;13.816;2023-03-03T01:07:23;23.80;39.80
46784;DHT22;32544;52.832;13.816;2023-03-03T01:08:24;23.80;39.80
46784;DHT22;32544;52.832;13.816;2023-03-03T01:09:25;23.80;39.80
46784;DHT22;32544;52.832;13.816;2023-03-03T01:10:26;23.80;39.80
46784;DHT22;32544;52.832;13.816;2023-03-03T01:11:27;23.80;39.80
46784;DHT22;32544;52.832;13.816;2023-03-03T01:12:28;23.80;39.80
46784;DHT22;32544;52.832;13.816;2023-03-03T01:13:30;23.80;39.80
46784;DHT22;32544;52.832;13.816;2023-03-03T01:14:31;23.80;39.80
46784;DHT22;32544;52.832;13.816;2023-03-03T01:15:31;23.80;39.80
46784;DHT22;32544;52.832;13.816;2023-03-03T01:16:32;23.80;39.80
46784;DHT22;32544;52.832;13.816;2023-03-03T01:17:33;23.80;39.80
46784;DHT22;32544;52.832;13.816;2023-03-03T01:18:34;23.80;39.80
46784;DHT22;32544;52.832;13.816;2023-03-03T01:19:35;23.80;39.80
46784;DHT22;32544;52.832;13.816;2023-03-03T01:20:36;23.80;39.80
46784;DHT22;32544;52.832;13.816;2023-03-03T01:21:37;23.80;39.80
46784;DHT22;32544;52.832;13.816;2023-03-03T01:22:39;23.80;39.80
46784;DHT22;32544;52.832;13.816;2023-03-03T01:23:40;23.80;39.80
46784;DHT22;32544;52.832;13.816;2023-03-03T01:24:40;23.80;39.80
46784;DHT22;32544;52.832;13.816;2023-03-03T01:25:41;23.80;39.80
46784;DHT22;32544;52.832;13.816;2023-03-03T01:26:42;23.80;39.80
46784;DHT22;32544;52.832;13.816;2023-03-03T01:27:42;23.80;39.80
46784;DHT22;32544;52.832;13.816;2023-03-03T01:28:43;23.80;39.80
46784;DHT22;32544;52.832;13.816;2023-03-03T01:29:43;23.80;39.80
46784;DHT22;32544;52.832;13.816;2023-03-03T01:30:44;23.80;39.70
46784;DHT22;32544;52.832;13.816;2023-03-03T01:31:46;23.80;39.80
46784;DHT22;32544;52.832;13.816;2023-03-03T01:32:46;23.80;39.70
46784;DHT22;32544;52.832;13.816;2023-03-03T01:33:47;23.80;39.70
46784;DHT22;32544;52.832;13.816;2023-03-03T01:34:48;23.80;39.70
46784;DHT22;32544;52.832;13.816;2023-03-03T01:35:48;23.90;39.80
46784;DHT22;32544;52.832;13.816;2023-03-03T01:36:49;23.90;39.70
46784;DHT22;32544;52.832;13.816;2023-03-03T01:37:49;23.90;39.70
46784;DHT22;32544;52.832;13.816;2023-03-03T01:38:50;23.90;39.70
46784;DHT22;32544;52.832;13.816;2023-03-03T01:39:52;23.80;39.70
46784;DHT22;32544;52.832;13.816;2023-03-03T01:40:54;23.80;39.70
46784;DHT22;32544;52.832;13.816;2023-03-03T01:41:54;23.80;39.70
46784;DHT22;32544;52.832;13.816;2023-03-03T01:42:55;23.80;39.70
46784;DHT22;32544;52.832;13.816;2023-03-03T01:43:56;23.90;39.70
46784;DHT22;32544;52.832;13.816;2023-03-03T01:45:10;23.90;39.70
46784;DHT22;32544;52.832;13.816;2023-03-03T01:46:27;23.90;39.70
46784;DHT22;32544;52.832;13.816;2023-03-03T01:47:29;23.90;39.80
46784;DHT22;32544;52.832;13.816;2023-03-03T01:49:41;23.80;39.70
46784;DHT22;32544;52.832;13.816;2023-03-03T01:50:48;23.80;39.70
46784;DHT22;32544;52.832;13.816;2023-03-03T01:51:56;23.90;39.70
46784;DHT22;32544;52.832;13.816;2023-03-03T01:52:58;23.90;39.70
46784;DHT22;32544;52.832;13.816;2023-03-03T01:54:03;23.90;39.70
46784;DHT22;32544;52.832;13.816;2023-03-03T01:55:18;23.90;39.70
46784;DHT22;32544;52.832;13.816;2023-03-03T01:56:20;23.90;39.70
46784;DHT22;32544;52.832;13.816;2023-03-03T01:57:40;23.90;39.60
46784;DHT22;32544;52.832;13.816;2023-03-03T01:58:45;23.90;39.60
46784;DHT22;32544;52.832;13.816;2023-03-03T01:59:49;23.90;39.60
46784;DHT22;32544;52.832;13.816;2023-03-03T02:00:52;23.90;39.60
46784;DHT22;32544;52.832;13.816;2023-03-03T02:01:53;23.90;39.60
46784;DHT22;32544;52.832;13.816;2023-03-03T02:02:54;23.90;39.60
46784;DHT22;32544;52.832;13.816;2023-03-03T02:03:54;23.90;39.60
46784;DHT22;32544;52.832;13.816;2023-03-03T02:04:55;23.90;39.60
46784;DHT22;32544;52.832;13.816;2023-03-03T02:05:58;23.90;39.70
46784;DHT22;32544;52.832;13.816;2023-03-03T02:07:00;23.90;39.70
46784;DHT22;32544;52.832;13.816;2023-03-03T02:08:03;23.90;39.60
46784;DHT22;32544;52.832;13.816;2023-03-03T02:09:15;23.90;39.60
46784;DHT22;32544;52.832;13.816;2023-03-03T02:10:18;23.90;39.60
46784;DHT22;32544;52.832;13.816;2023-03-03T02:11:21;23.90;39.60
46784;DHT22;32544;52.832;13.816;2023-03-03T02:12:22;23.90;39.60
46784;DHT22;32544;52.832;13.816;2023-03-03T02:13:25;23.90;39.60
46784;DHT22;32544;52.832;13.816;2023-03-03T02:14:28;23.90;39.60
46784;DHT22;32544;52.832;13.816;2023-03-03T02:15:30;23.90;40.30
46784;DHT22;32544;52.832;13.816;2023-03-03T02:16:32;23.90;39.60
46784;DHT22;32544;52.832;13.816;2023-03-03T02:17:33;23.90;39.60
46784;DHT22;32544;52.832;13.816;2023-03-03T02:18:34;23.90;39.60
46784;DHT22;32544;52.832;13.816;2023-03-03T02:21:47;23.90;39.70
46784;DHT22;32544;52.832;13.816;2023-03-03T02:25:07;23.90;39.70
46784;DHT22;32544;52.832;13.816;2023-03-03T02:26:17;23.80;39.70
46784;DHT22;32544;52.832;13.816;2023-03-03T02:27:19;23.90;39.70
46784;DHT22;32544;52.832;13.816;2023-03-03T02:28:20;23.70;39.60
46784;DHT22;32544;52.832;13.816;2023-03-03T02:29:22;23.80;39.60
46784;DHT22;32544;52.832;13.816;2023-03-03T02:30:23;23.90;39.60
46784;DHT22;32544;52.832;13.816;2023-03-03T02:31:25;23.90;40.30
46784;DHT22;32544;52.832;13.816;2023-03-03T02:32:27;23.90;39.70
46784;DHT22;32544;52.832;13.816;2023-03-03T02:33:28;23.90;39.70
46784;DHT22;32544;52.832;13.816;2023-03-03T02:34:29;23.80;39.60
46784;DHT22;32544;52.832;13.816;2023-03-03T02:35:31;23.90;39.70
46784;DHT22;32544;52.832;13.816;2023-03-03T02:36:36;23.90;39.70
46784;DHT22;32544;52.832;13.816;2023-03-03T02:37:36;23.90;39.70
46784;DHT22;32544;52.832;13.816;2023-03-03T02:39:54;23.80;39.60
46784;DHT22;32544;52.832;13.816;2023-03-03T02:43:08;23.80;39.70
46784;DHT22;32544;52.832;13.816;2023-03-03T02:44:11;23.80;39.70
46784;DHT22;32544;52.832;13.816;2023-03-03T02:45:12;23.80;39.70
46784;DHT22;32544;52.832;13.816;2023-03-03T02:46:13;23.80;39.70
46784;DHT22;32544;52.832;13.816;2023-03-03T02:47:13;23.80;39.70
46784;DHT22;32544;52.832;13.816;2023-03-03T02:48:14;23.80;39.70
46784;DHT22;32544;52.832;13.816;2023-03-03T02:49:16;23.80;39.70
46784;DHT22;32544;52.832;13.816;2023-03-03T02:50:16;23.80;39.70
46784;DHT22;32544;52.832;13.816;2023-03-03T02:51:17;23.80;39.70
46784;DHT22;32544;52.832;13.816;2023-03-03T02:52:18;23.80;39.70
46784;DHT22;32544;52.832;13.816;2023-03-03T02:53:20;23.80;40.10
46784;DHT22;32544;52.832;13.816;2023-03-03T02:54:22;23.80;39.70
46784;DHT22;32544;52.832;13.816;2023-03-03T02:55:22;23.80;39.70
46784;DHT22;32544;52.832;13.816;2023-03-03T02:56:23;23.80;39.70
46784;DHT22;32544;52.832;13.816;2023-03-03T02:57:23;23.80;39.70
46784;DHT22;32544;52.832;13.816;2023-03-03T02:58:24;23.80;39.70
46784;DHT22;32544;52.832;13.816;2023-03-03T02:59:25;23.80;39.70
46784;DHT22;32544;52.832;13.816;2023-03-03T03:00:26;23.80;39.70
46784;DHT22;32544;52.832;13.816;2023-03-03T03:01:27;23.80;39.70
46784;DHT22;32544;52.832;13.816;2023-03-03T03:02:28;23.80;39.70
46784;DHT22;32544;52.832;13.816;2023-03-03T03:03:29;23.80;39.70
46784;DHT22;32544;52.832;13.816;2023-03-03T03:04:30;23.80;39.70
46784;DHT22;32544;52.832;13.816;2023-03-03T03:05:32;23.80;39.70
46784;DHT22;32544;52.832;13.816;2023-03-03T03:06:32;23.80;39.70
46784;DHT22;32544;52.832;13.816;2023-03-03T03:07:33;23.80;39.70
46784;DHT22;32544;52.832;13.816;2023-03-03T03:08:34;23.80;39.70
46784;DHT22;32544;52.832;13.816;2023-03-03T03:09:34;23.80;39.70
46784;DHT22;32544;52.832;13.816;2023-03-03T03:10:35;23.80;39.70
46784;DHT22;32544;52.832;13.816;2023-03-03T03:11:36;23.80;39.70
46784;DHT22;32544;52.832;13.816;2023-03-03T03:12:37;23.80;39.60
46784;DHT22;32544;52.832;13.816;2023-03-03T03:13:38;23.80;39.60
46784;DHT22;32544;52.832;13.816;2023-03-03T03:14:39;23.80;39.60
46784;DHT22;32544;52.832;13.816;2023-03-03T03:15:40;23.80;39.60
46784;DHT22;32544;52.832;13.816;2023-03-03T03:16:41;23.80;39.60
46784;DHT22;32544;52.832;13.816;2023-03-03T03:17:42;23.80;39.60
46784;DHT22;32544;52.832;13.816;2023-03-03T03:18:43;23.80;39.60
46784;DHT22;32544;52.832;13.816;2023-03-03T03:19:44;23.80;39.60
46784;DHT22;32544;52.832;13.816;2023-03-03T03:20:45;23.80;39.60
46784;DHT22;32544;52.832;13.816;2023-03-03T03:21:46;23.80;39.70
46784;DHT22;32544;52.832;13.816;2023-03-03T03:22:46;23.80;39.60
46784;DHT22;32544;52.832;13.816;2023-03-03T03:23:47;23.80;39.60
46784;DHT22;32544;52.832;13.816;2023-03-03T03:24:47;23.90;39.70
46784;DHT22;32544;52.832;13.816;2023-03-03T03:25:49;23.90;39.60
46784;DHT22;32544;52.832;13.816;2023-03-03T03:26:58;23.90;39.60
46784;DHT22;32544;52.832;13.816;2023-03-03T03:28:00;23.90;39.60
46784;DHT22;32544;52.832;13.816;2023-03-03T03:29:01;23.90;39.60
46784;DHT22;32544;52.832;13.816;2023-03-03T03:30:02;23.90;39.60
46784;DHT22;32544;52.832;13.816;2023-03-03T03:31:04;23.80;39.60
46784;DHT22;32544;52.832;13.816;2023-03-03T03:32:05;23.80;39.50
46784;DHT22;32544;52.832;13.816;2023-03-03T03:33:06;23.90;39.60
46784;DHT22;32544;52.832;13.816;2023-03-03T03:34:08;23.90;39.60
46784;DHT22;32544;52.832;13.816;2023-03-03T03:35:08;23.90;39.60
46784;DHT22;32544;52.832;13.816;2023-03-03T03:36:11;23.90;39.50
46784;DHT22;32544;52.832;13.816;2023-03-03T03:37:12;23.90;39.50
46784;DHT22;32544;52.832;13.816;2023-03-03T03:38:13;23.90;39.50
46784;DHT22;32544;52.832;13.816;2023-03-03T03:39:13;23.90;39.50
46784;DHT22;32544;52.832;13.816;2023-03-03T03:40:19;23.90;39.50
46784;DHT22;32544;52.832;13.816;2023-03-03T03:41:19;23.90;39.50
46784;DHT22;32544;52.832;13.816;2023-03-03T03:42:20;23.90;39.60
46784;DHT22;32544;52.832;13.816;2023-03-03T03:43:21;23.90;39.40
46784;DHT22;32544;52.832;13.816;2023-03-03T03:44:22;23.90;39.50
46784;DHT22;32544;52.832;13.816;2023-03-03T03:45:24;23.90;39.50
46784;DHT22;32544;52.832;13.816;2023-03-03T03:46:25;24.00;39.40
46784;DHT22;32544;52.832;13.816;2023-03-03T03:47:26;24.00;39.40
46784;DHT22;32544;52.832;13.816;2023-03-03T03:48:27;24.00;39.40
46784;DHT22;32544;52.832;13.816;2023-03-03T03:49:29;24.00;39.40
46784;DHT22;32544;52.832;13.816;2023-03-03T03:50:31;24.00;39.30
46784;DHT22;32544;52.832;13.816;2023-03-03T03:51:31;24.00;39.30
46784;DHT22;32544;52.832;13.816;2023-03-03T03:52:34;24.00;39.30
46784;DHT22;32544;52.832;13.816;2023-03-03T03:53:36;24.00;39.30
46784;DHT22;32544;52.832;13.816;2023-03-03T03:54:37;24.00;39.30
46784;DHT22;32544;52.832;13.816;2023-03-03T03:55:38;24.00;39.20
46784;DHT22;32544;52.832;13.816;2023-03-03T03:56:38;24.00;39.30
46784;DHT22;32544;52.832;13.816;2023-03-03T03:57:39;24.00;39.30
46784;DHT22;32544;52.832;13.816;2023-03-03T03:58:40;24.00;39.20
46784;DHT22;32544;52.832;13.816;2023-03-03T03:59:43;24.00;39.90
46784;DHT22;32544;52.832;13.816;2023-03-03T04:00:44;24.00;39.30
46784;DHT22;32544;52.832;13.816;2023-03-03T04:01:45;24.00;39.80
46784;DHT22;32544;52.832;13.816;2023-03-03T04:02:47;24.00;39.20
46784;DHT22;32544;52.832;13.816;2023-03-03T04:03:49;24.00;39.80
46784;DHT22;32544;52.832;13.816;2023-03-03T04:04:53;24.00;39.20
46784;DHT22;32544;52.832;13.816;2023-03-03T04:05:54;24.00;39.20
46784;DHT22;32544;52.832;13.816;2023-03-03T04:06:55;24.00;39.20
46784;DHT22;32544;52.832;13.816;2023-03-03T04:07:55;24.00;39.20
46784;DHT22;32544;52.832;13.816;2023-03-03T04:08:56;24.00;39.10
46784;DHT22;32544;52.832;13.816;2023-03-03T04:09:57;24.00;38.90
46784;DHT22;32544;52.832;13.816;2023-03-03T04:10:58;24.00;38.80
46784;DHT22;32544;52.832;13.816;2023-03-03T04:12:00;24.00;38.80
46784;DHT22;32544;52.832;13.816;2023-03-03T04:13:01;24.00;38.70
46784;DHT22;32544;52.832;13.816;2023-03-03T04:14:01;24.00;38.70
46784;DHT22;32544;52.832;13.816;2023-03-03T04:15:06;24.00;38.80
46784;DHT22;32544;52.832;13.816;2023-03-03T04:16:07;24.00;38.80
46784;DHT22;32544;52.832;13.816;2023-03-03T04:17:18;24.00;38.80
46784;DHT22;32544;52.832;13.816;2023-03-03T04:18:19;24.00;38.90
46784;DHT22;32544;52.832;13.816;2023-03-03T04:19:20;24.00;38.90
46784;DHT22;32544;52.832;13.816;2023-03-03T04:20:23;24.00;38.90
46784;DHT22;32544;52.832;13.816;2023-03-03T04:21:24;24.00;38.90
46784;DHT22;32544;52.832;13.816;2023-03-03T04:22:27;24.00;38.90
46784;DHT22;32544;52.832;13.816;2023-03-03T04:23:29;24.00;38.90
46784;DHT22;32544;52.832;13.816;2023-03-03T04:24:30;24.00;39.00
46784;DHT22;32544;52.832;13.816;2023-03-03T04:25:31;24.00;39.00
46784;DHT22;32544;52.832;13.816;2023-03-03T04:26:31;24.00;39.00
46784;DHT22;32544;52.832;13.816;2023-03-03T04:27:35;24.00;39.00
46784;DHT22;32544;52.832;13.816;2023-03-03T04:28:36;24.00;39.00
46784;DHT22;32544;52.832;13.816;2023-03-03T04:29:36;23.90;39.00
46784;DHT22;32544;52.832;13.816;2023-03-03T04:30:37;23.90;39.00
46784;DHT22;32544;52.832;13.816;2023-03-03T04:31:38;23.90;39.10
46784;DHT22;32544;52.832;13.816;2023-03-03T04:32:41;23.90;39.10
46784;DHT22;32544;52.832;13.816;2023-03-03T04:33:44;23.90;39.10
46784;DHT22;32544;52.832;13.816;2023-03-03T04:34:45;23.90;39.10
46784;DHT22;32544;52.832;13.816;2023-03-03T04:35:45;23.90;39.40
46784;DHT22;32544;52.832;13.816;2023-03-03T04:36:46;23.90;39.10
46784;DHT22;32544;52.832;13.816;2023-03-03T04:37:46;23.90;39.20
46784;DHT22;32544;52.832;13.816;2023-03-03T04:38:47;23.90;39.20
46784;DHT22;32544;52.832;13.816;2023-03-03T04:39:48;23.90;39.20
46784;DHT22;32544;52.832;13.816;2023-03-03T04:40:49;23.90;39.20
46784;DHT22;32544;52.832;13.816;2023-03-03T04:41:51;23.90;39.20
46784;DHT22;32544;52.832;13.816;2023-03-03T04:42:52;23.90;39.20
46784;DHT22;32544;52.832;13.816;2023-03-03T04:43:53;23.90;39.30
46784;DHT22;32544;52.832;13.816;2023-03-03T04:44:53;23.90;39.20
46784;DHT22;32544;52.832;13.816;2023-03-03T04:45:54;23.80;39.20
46784;DHT22;32544;52.832;13.816;2023-03-03T04:46:56;23.80;39.30
46784;DHT22;32544;52.832;13.816;2023-03-03T04:47:56;23.80;39.30
46784;DHT22;32544;52.832;13.816;2023-03-03T04:48:57;23.80;39.30
46784;DHT22;32544;52.832;13.816;2023-03-03T04:49:59;23.80;39.30
46784;DHT22;32544;52.832;13.816;2023-03-03T04:51:01;23.80;39.30
46784;DHT22;32544;52.832;13.816;2023-03-03T04:52:02;23.80;39.30
46784;DHT22;32544;52.832;13.816;2023-03-03T04:53:03;23.80;39.30
46784;DHT22;32544;52.832;13.816;2023-03-03T04:54:03;23.80;40.00
46784;DHT22;32544;52.832;13.816;2023-03-03T04:55:04;23.80;39.30
46784;DHT22;32544;52.832;13.816;2023-03-03T04:56:05;23.80;39.40
46784;DHT22;32544;52.832;13.816;2023-03-03T04:57:06;23.80;39.40
46784;DHT22;32544;52.832;13.816;2023-03-03T04:58:08;23.70;39.30
46784;DHT22;32544;52.832;13.816;2023-03-03T04:59:10;23.70;39.30
46784;DHT22;32544;52.832;13.816;2023-03-03T05:00:11;23.70;39.30
46784;DHT22;32544;52.832;13.816;2023-03-03T05:01:12;23.70;39.40
46784;DHT22;32544;52.832;13.816;2023-03-03T05:02:14;23.70;39.30
46784;DHT22;32544;52.832;13.816;2023-03-03T05:03:14;23.70;39.50
46784;DHT22;32544;52.832;13.816;2023-03-03T05:04:16;23.70;39.40
46784;DHT22;32544;52.832;13.816;2023-03-03T05:05:16;23.70;39.40
46784;DHT22;32544;52.832;13.816;2023-03-03T05:06:17;23.70;39.40
46784;DHT22;32544;52.832;13.816;2023-03-03T05:07:18;23.70;39.40
46784;DHT22;32544;52.832;13.816;2023-03-03T05:08:19;23.70;39.40
46784;DHT22;32544;52.832;13.816;2023-03-03T05:09:19;23.70;39.40
46784;DHT22;32544;52.832;13.816;2023-03-03T05:10:20;23.70;39.50
46784;DHT22;32544;52.832;13.816;2023-03-03T05:11:21;23.70;39.50
46784;DHT22;32544;52.832;13.816;2023-03-03T05:12:21;23.70;39.40
46784;DHT22;32544;52.832;13.816;2023-03-03T05:13:22;23.70;39.40
46784;DHT22;32544;52.832;13.816;2023-03-03T05:14:23;23.70;39.50
46784;DHT22;32544;52.832;13.816;2023-03-03T05:15:23;23.70;39.50
46784;DHT22;32544;52.832;13.816;2023-03-03T05:16:24;23.70;39.50
46784;DHT22;32544;52.832;13.816;2023-03-03T05:17:24;23.70;39.50
46784;DHT22;32544;52.832;13.816;2023-03-03T05:18:25;23.70;39.50
46784;DHT22;32544;52.832;13.816;2023-03-03T05:19:26;23.60;39.50
46784;DHT22;32544;52.832;13.816;2023-03-03T05:20:27;23.60;39.50
46784;DHT22;32544;52.832;13.816;2023-03-03T05:21:28;23.60;39.50
46784;DHT22;32544;52.832;13.816;2023-03-03T05:22:28;23.60;39.50
46784;DHT22;32544;52.832;13.816;2023-03-03T05:23:29;23.60;39.50
46784;DHT22;32544;52.832;13.816;2023-03-03T05:24:30;23.60;39.50
46784;DHT22;32544;52.832;13.816;2023-03-03T05:25:31;23.60;39.50
46784;DHT22;32544;52.832;13.816;2023-03-03T05:26:31;23.60;39.50
46784;DHT22;32544;52.832;13.816;2023-03-03T05:27:32;23.60;39.60
46784;DHT22;32544;52.832;13.816;2023-03-03T05:28:33;23.60;39.60
46784;DHT22;32544;52.832;13.816;2023-03-03T05:29:34;23.60;39.50
46784;DHT22;32544;52.832;13.816;2023-03-03T05:30:35;23.60;39.50
46784;DHT22;32544;52.832;13.816;2023-03-03T05:31:36;23.60;39.60
46784;DHT22;32544;52.832;13.816;2023-03-03T05:32:36;23.60;39.60
46784;DHT22;32544;52.832;13.816;2023-03-03T05:33:37;23.60;39.60
46784;DHT22;32544;52.832;13.816;2023-03-03T05:34:37;23.60;39.60
46784;DHT22;32544;52.832;13.816;2023-03-03T05:35:38;23.60;39.60
46784;DHT22;32544;52.832;13.816;2023-03-03T05:36:39;23.60;39.70
46784;DHT22;32544;52.832;13.816;2023-03-03T05:37:39;23.60;39.60
46784;DHT22;32544;52.832;13.816;2023-03-03T05:38:46;23.60;39.60
46784;DHT22;32544;52.832;13.816;2023-03-03T05:39:46;23.60;39.60
46784;DHT22;32544;52.832;13.816;2023-03-03T05:40:47;23.60;39.60
46784;DHT22;32544;52.832;13.816;2023-03-03T05:41:47;23.60;39.60
46784;DHT22;32544;52.832;13.816;2023-03-03T05:42:48;23.60;39.60
46784;DHT22;32544;52.832;13.816;2023-03-03T05:43:49;23.60;39.60
46784;DHT22;32544;52.832;13.816;2023-03-03T05:44:49;23.60;39.70
46784;DHT22;32544;52.832;13.816;2023-03-03T05:45:53;23.60;39.60
46784;DHT22;32544;52.832;13.816;2023-03-03T05:46:54;23.60;39.60
46784;DHT22;32544;52.832;13.816;2023-03-03T05:47:57;23.60;39.60
46784;DHT22;32544;52.832;13.816;2023-03-03T05:48:57;23.60;39.60
46784;DHT22;32544;52.832;13.816;2023-03-03T05:49:58;23.70;39.70
46784;DHT22;32544;52.832;13.816;2023-03-03T05:51:00;23.70;39.60
46784;DHT22;32544;52.832;13.816;2023-03-03T05:52:00;23.70;39.60
46784;DHT22;32544;52.832;13.816;2023-03-03T05:53:01;23.70;39.50
46784;DHT22;32544;52.832;13.816;2023-03-03T05:54:02;23.70;39.50
46784;DHT22;32544;52.832;13.816;2023-03-03T05:55:02;23.70;39.50
46784;DHT22;32544;52.832;13.816;2023-03-03T05:56:03;23.70;39.40
46784;DHT22;32544;52.832;13.816;2023-03-03T05:57:04;23.80;39.50
46784;DHT22;32544;52.832;13.816;2023-03-03T05:58:04;23.80;39.40
46784;DHT22;32544;52.832;13.816;2023-03-03T05:59:05;23.80;39.50
46784;DHT22;32544;52.832;13.816;2023-03-03T06:00:06;23.80;39.40
46784;DHT22;32544;52.832;13.816;2023-03-03T06:01:12;23.80;39.40
46784;DHT22;32544;52.832;13.816;2023-03-03T06:02:13;23.90;39.40
46784;DHT22;32544;52.832;13.816;2023-03-03T06:03:13;23.90;39.30
46784;DHT22;32544;52.832;13.816;2023-03-03T06:04:14;23.90;39.30
46784;DHT22;32544;52.832;13.816;2023-03-03T06:05:15;23.90;39.30
46784;DHT22;32544;52.832;13.816;2023-03-03T06:06:15;23.90;39.30
46784;DHT22;32544;52.832;13.816;2023-03-03T06:07:18;23.90;39.30
46784;DHT22;32544;52.832;13.816;2023-03-03T06:08:19;23.90;39.30
46784;DHT22;32544;52.832;13.816;2023-03-03T06:09:19;23.90;39.30
46784;DHT22;32544;52.832;13.816;2023-03-03T06:10:20;23.90;39.20
46784;DHT22;32544;52.832;13.816;2023-03-03T06:11:25;23.90;39.20
46784;DHT22;32544;52.832;13.816;2023-03-03T06:12:26;23.90;39.20
46784;DHT22;32544;52.832;13.816;2023-03-03T06:13:26;23.90;39.20
46784;DHT22;32544;52.832;13.816;2023-03-03T06:14:27;23.90;39.20
46784;DHT22;32544;52.832;13.816;2023-03-03T06:15:27;23.90;39.20
46784;DHT22;32544;52.832;13.816;2023-03-03T06:16:28;23.90;39.20
46784;DHT22;32544;52.832;13.816;2023-03-03T06:17:29;23.90;39.20
46784;DHT22;32544;52.832;13.816;2023-03-03T06:18:29;23.90;39.20
46784;DHT22;32544;52.832;13.816;2023-03-03T06:19:30;23.90;39.20
46784;DHT22;32544;52.832;13.816;2023-03-03T06:20:31;24.00;39.20
46784;DHT22;32544;52.832;13.816;2023-03-03T06:21:32;23.90;39.20
46784;DHT22;32544;52.832;13.816;2023-03-03T06:22:33;24.00;39.20
46784;DHT22;32544;52.832;13.816;2023-03-03T06:23:33;23.90;39.20
46784;DHT22;32544;52.832;13.816;2023-03-03T06:24:34;23.90;39.20
46784;DHT22;32544;52.832;13.816;2023-03-03T06:25:35;23.90;39.20
46784;DHT22;32544;52.832;13.816;2023-03-03T06:26:35;23.90;39.20
46784;DHT22;32544;52.832;13.816;2023-03-03T06:27:36;23.90;39.20
46784;DHT22;32544;52.832;13.816;2023-03-03T06:28:36;23.90;39.20
46784;DHT22;32544;52.832;13.816;2023-03-03T06:29:37;23.90;39.30
46784;DHT22;32544;52.832;13.816;2023-03-03T06:30:37;23.90;39.30
46784;DHT22;32544;52.832;13.816;2023-03-03T06:31:38;23.90;39.30
46784;DHT22;32544;52.832;13.816;2023-03-03T06:32:39;23.90;39.30
46784;DHT22;32544;52.832;13.816;2023-03-03T06:33:39;23.90;39.40
46784;DHT22;32544;52.832;13.816;2023-03-03T06:34:41;23.90;39.40
46784;DHT22;32544;52.832;13.816;2023-03-03T06:35:42;23.90;39.40
46784;DHT22;32544;52.832;13.816;2023-03-03T06:36:43;23.90;39.40
46784;DHT22;32544;52.832;13.816;2023-03-03T06:37:44;23.90;39.40